Terminal Aerodrome Forecast
Issued by NWS Albuquerque, NM

Home | Current Version | Previous Version | Text Only | Print | Product List | Glossary On
Versions: 1 2 3 4 5 6 7 8 9 10 11 12
969
FTUS45 KABQ 241122
TAFABQ
TAF
KABQ 241122Z 2412/2512 VRB03KT P6SM SKC
     FM241600 22007KT P6SM SKC
     FM242000 23015G25KT P6SM SKC
     FM250100 23011KT P6SM FEW120
     FM250700 VRB04KT P6SM SKC=

USA.gov is the U.S. government's official web portal to all federal, state and local government web resources and services.